sensor_id;sensor_type;location;lat;lon;timestamp;pressure;altitude;pressure_sealevel;temperature
80246;BMP280;69558;39.208;-77.226;2024-03-22T00:01:51;100777.81;;;17.30
80246;BMP280;69558;39.208;-77.226;2024-03-22T00:04:17;100781.75;;;17.26
80246;BMP280;69558;39.208;-77.226;2024-03-22T00:06:45;100781.44;;;17.29
80246;BMP280;69558;39.208;-77.226;2024-03-22T00:09:12;100792.22;;;17.26
80246;BMP280;69558;39.208;-77.226;2024-03-22T00:11:40;100793.41;;;17.24
80246;BMP280;69558;39.208;-77.226;2024-03-22T00:14:07;100805.50;;;17.25
80246;BMP280;69558;39.208;-77.226;2024-03-22T00:16:35;100817.00;;;17.24
80246;BMP280;69558;39.208;-77.226;2024-03-22T00:19:03;100824.06;;;17.23
80246;BMP280;69558;39.208;-77.226;2024-03-22T00:21:30;100828.47;;;17.23
80246;BMP280;69558;39.208;-77.226;2024-03-22T00:23:57;100836.84;;;17.18
80246;BMP280;69558;39.208;-77.226;2024-03-22T00:26:23;100851.41;;;17.21
80246;BMP280;69558;39.208;-77.226;2024-03-22T00:28:49;100854.34;;;17.17
80246;BMP280;69558;39.208;-77.226;2024-03-22T00:31:16;100855.69;;;17.13
80246;BMP280;69558;39.208;-77.226;2024-03-22T00:33:43;100865.69;;;17.18
80246;BMP280;69558;39.208;-77.226;2024-03-22T00:36:09;100879.75;;;17.17
80246;BMP280;69558;39.208;-77.226;2024-03-22T00:38:35;100872.34;;;17.12
80246;BMP280;69558;39.208;-77.226;2024-03-22T00:41:01;100885.81;;;17.17
80246;BMP280;69558;39.208;-77.226;2024-03-22T00:43:27;100883.50;;;17.14
80246;BMP280;69558;39.208;-77.226;2024-03-22T00:45:53;100893.66;;;17.17
80246;BMP280;69558;39.208;-77.226;2024-03-22T00:48:19;100894.00;;;17.14
80246;BMP280;69558;39.208;-77.226;2024-03-22T00:50:45;100894.81;;;17.15
80246;BMP280;69558;39.208;-77.226;2024-03-22T00:53:11;100900.72;;;17.17
80246;BMP280;69558;39.208;-77.226;2024-03-22T00:55:37;100912.69;;;17.20
80246;BMP280;69558;39.208;-77.226;2024-03-22T00:58:05;100918.41;;;17.15
80246;BMP280;69558;39.208;-77.226;2024-03-22T01:00:31;100928.06;;;17.14
80246;BMP280;69558;39.208;-77.226;2024-03-22T01:02:57;100929.09;;;17.13
80246;BMP280;69558;39.208;-77.226;2024-03-22T01:05:23;100941.38;;;17.13
80246;BMP280;69558;39.208;-77.226;2024-03-22T01:07:49;100944.94;;;17.12
80246;BMP280;69558;39.208;-77.226;2024-03-22T01:10:15;100948.72;;;17.09
80246;BMP280;69558;39.208;-77.226;2024-03-22T01:12:41;100959.03;;;17.11
80246;BMP280;69558;39.208;-77.226;2024-03-22T01:15:07;100954.28;;;17.06
80246;BMP280;69558;39.208;-77.226;2024-03-22T01:17:34;100965.25;;;17.10
80246;BMP280;69558;39.208;-77.226;2024-03-22T01:20:01;100964.75;;;17.06
80246;BMP280;69558;39.208;-77.226;2024-03-22T01:22:27;100988.69;;;17.11
80246;BMP280;69558;39.208;-77.226;2024-03-22T01:24:53;100984.75;;;17.07
80246;BMP280;69558;39.208;-77.226;2024-03-22T01:27:19;101003.09;;;17.07
80246;BMP280;69558;39.208;-77.226;2024-03-22T01:29:46;101006.84;;;17.05
80246;BMP280;69558;39.208;-77.226;2024-03-22T01:32:12;101020.16;;;17.03
80246;BMP280;69558;39.208;-77.226;2024-03-22T01:34:38;101020.28;;;17.02
80246;BMP280;69558;39.208;-77.226;2024-03-22T01:37:05;101021.09;;;17.02
80246;BMP280;69558;39.208;-77.226;2024-03-22T01:39:32;101031.59;;;17.02
80246;BMP280;69558;39.208;-77.226;2024-03-22T01:41:59;101034.22;;;17.02
80246;BMP280;69558;39.208;-77.226;2024-03-22T01:44:29;101035.19;;;17.01
80246;BMP280;69558;39.208;-77.226;2024-03-22T01:46:55;101034.38;;;17.01
80246;BMP280;69558;39.208;-77.226;2024-03-22T01:49:22;101039.44;;;17.02
80246;BMP280;69558;39.208;-77.226;2024-03-22T01:51:50;101036.81;;;17.02
80246;BMP280;69558;39.208;-77.226;2024-03-22T01:54:17;101035.03;;;17.03
80246;BMP280;69558;39.208;-77.226;2024-03-22T01:56:44;101037.50;;;17.04
80246;BMP280;69558;39.208;-77.226;2024-03-22T01:59:12;101037.50;;;17.04
80246;BMP280;69558;39.208;-77.226;2024-03-22T02:01:38;101026.34;;;17.02
80246;BMP280;69558;39.208;-77.226;2024-03-22T02:04:05;101038.00;;;17.08
80246;BMP280;69558;39.208;-77.226;2024-03-22T02:06:34;101042.09;;;17.10
80246;BMP280;69558;39.208;-77.226;2024-03-22T02:09:00;101026.22;;;17.04
80246;BMP280;69558;39.208;-77.226;2024-03-22T02:11:26;101041.13;;;17.11
80246;BMP280;69558;39.208;-77.226;2024-03-22T02:13:53;101042.59;;;17.14
80246;BMP280;69558;39.208;-77.226;2024-03-22T02:16:18;101044.44;;;17.13
80246;BMP280;69558;39.208;-77.226;2024-03-22T02:18:46;101037.69;;;17.11
80246;BMP280;69558;39.208;-77.226;2024-03-22T02:21:12;101042.59;;;17.14
80246;BMP280;69558;39.208;-77.226;2024-03-22T02:23:39;101023.38;;;16.97
80246;BMP280;69558;39.208;-77.226;2024-03-22T02:26:07;101055.22;;;17.10
80246;BMP280;69558;39.208;-77.226;2024-03-22T02:28:34;101064.59;;;17.13
80246;BMP280;69558;39.208;-77.226;2024-03-22T02:31:02;101062.09;;;17.11
80246;BMP280;69558;39.208;-77.226;2024-03-22T02:33:30;101066.66;;;17.09
80246;BMP280;69558;39.208;-77.226;2024-03-22T02:35:56;101060.28;;;17.04
80246;BMP280;69558;39.208;-77.226;2024-03-22T02:38:22;101062.22;;;17.02
80246;BMP280;69558;39.208;-77.226;2024-03-22T02:40:50;101076.38;;;17.09
80246;BMP280;69558;39.208;-77.226;2024-03-22T02:43:16;101080.09;;;17.06
80246;BMP280;69558;39.208;-77.226;2024-03-22T02:45:47;101083.53;;;17.07
80246;BMP280;69558;39.208;-77.226;2024-03-22T02:48:13;101078.63;;;17.04
80246;BMP280;69558;39.208;-77.226;2024-03-22T02:50:39;101079.75;;;17.01
80246;BMP280;69558;39.208;-77.226;2024-03-22T02:53:06;101089.41;;;17.01
80246;BMP280;69558;39.208;-77.226;2024-03-22T02:55:40;101098.91;;;17.02
80246;BMP280;69558;39.208;-77.226;2024-03-22T02:58:07;101104.31;;;17.00
80246;BMP280;69558;39.208;-77.226;2024-03-22T03:00:39;101111.34;;;17.00
80246;BMP280;69558;39.208;-77.226;2024-03-22T03:03:06;101111.97;;;16.94
80246;BMP280;69558;39.208;-77.226;2024-03-22T03:05:34;101111.81;;;16.95
80246;BMP280;69558;39.208;-77.226;2024-03-22T03:08:00;101111.47;;;16.90
80246;BMP280;69558;39.208;-77.226;2024-03-22T03:10:26;101126.72;;;16.95
80246;BMP280;69558;39.208;-77.226;2024-03-22T03:12:54;101130.31;;;16.94
80246;BMP280;69558;39.208;-77.226;2024-03-22T03:15:20;101123.44;;;16.93
80246;BMP280;69558;39.208;-77.226;2024-03-22T03:17:46;101128.84;;;16.91
80246;BMP280;69558;39.208;-77.226;2024-03-22T03:20:12;101131.44;;;16.91
80246;BMP280;69558;39.208;-77.226;2024-03-22T03:22:39;101120.31;;;16.89
80246;BMP280;69558;39.208;-77.226;2024-03-22T03:25:06;101129.13;;;16.88
80246;BMP280;69558;39.208;-77.226;2024-03-22T03:27:34;101122.53;;;16.84
80246;BMP280;69558;39.208;-77.226;2024-03-22T03:30:00;101128.13;;;16.81
80246;BMP280;69558;39.208;-77.226;2024-03-22T03:32:27;101127.13;;;16.82
80246;BMP280;69558;39.208;-77.226;2024-03-22T03:34:53;101125.66;;;16.79
80246;BMP280;69558;39.208;-77.226;2024-03-22T03:37:18;101127.50;;;16.87
80246;BMP280;69558;39.208;-77.226;2024-03-22T03:39:44;101132.56;;;16.89
80246;BMP280;69558;39.208;-77.226;2024-03-22T03:42:11;101115.22;;;16.88
80246;BMP280;69558;39.208;-77.226;2024-03-22T03:44:37;101127.03;;;16.92
80246;BMP280;69558;39.208;-77.226;2024-03-22T03:47:03;101125.22;;;16.92
80246;BMP280;69558;39.208;-77.226;2024-03-22T03:49:29;101114.41;;;16.87
80246;BMP280;69558;39.208;-77.226;2024-03-22T03:51:55;101128.38;;;16.96
80246;BMP280;69558;39.208;-77.226;2024-03-22T03:54:21;101138.69;;;16.97
80246;BMP280;69558;39.208;-77.226;2024-03-22T03:56:47;101138.84;;;16.96
80246;BMP280;69558;39.208;-77.226;2024-03-22T03:59:12;101144.91;;;16.96
80246;BMP280;69558;39.208;-77.226;2024-03-22T04:01:38;101141.47;;;16.96
80246;BMP280;69558;39.208;-77.226;2024-03-22T04:04:04;101143.13;;;16.97
80246;BMP280;69558;39.208;-77.226;2024-03-22T04:06:30;101148.34;;;16.97
80246;BMP280;69558;39.208;-77.226;2024-03-22T04:08:56;101135.88;;;16.91
80246;BMP280;69558;39.208;-77.226;2024-03-22T04:11:23;101139.47;;;16.90
80246;BMP280;69558;39.208;-77.226;2024-03-22T04:13:49;101128.16;;;16.89
80246;BMP280;69558;39.208;-77.226;2024-03-22T04:16:15;101129.94;;;16.89
80246;BMP280;69558;39.208;-77.226;2024-03-22T04:18:41;101138.50;;;16.91
80246;BMP280;69558;39.208;-77.226;2024-03-22T04:21:07;101143.03;;;16.89
80246;BMP280;69558;39.208;-77.226;2024-03-22T04:23:34;101145.84;;;16.87
80246;BMP280;69558;39.208;-77.226;2024-03-22T04:26:00;101136.13;;;16.79
80246;BMP280;69558;39.208;-77.226;2024-03-22T04:28:27;101149.91;;;16.81
80246;BMP280;69558;39.208;-77.226;2024-03-22T04:31:04;101158.75;;;16.89
80246;BMP280;69558;39.208;-77.226;2024-03-22T04:33:32;101153.53;;;16.89
80246;BMP280;69558;39.208;-77.226;2024-03-22T04:36:00;101145.28;;;16.83
80246;BMP280;69558;39.208;-77.226;2024-03-22T04:38:27;101154.38;;;16.89
80246;BMP280;69558;39.208;-77.226;2024-03-22T04:40:53;101147.50;;;16.88
80246;BMP280;69558;39.208;-77.226;2024-03-22T04:43:20;101154.06;;;16.92
80246;BMP280;69558;39.208;-77.226;2024-03-22T04:45:47;101160.13;;;16.93
80246;BMP280;69558;39.208;-77.226;2024-03-22T04:48:14;101148.97;;;16.91
80246;BMP280;69558;39.208;-77.226;2024-03-22T04:50:40;101157.34;;;16.94
80246;BMP280;69558;39.208;-77.226;2024-03-22T04:53:07;101153.75;;;16.95
80246;BMP280;69558;39.208;-77.226;2024-03-22T04:55:34;101159.81;;;16.96
80246;BMP280;69558;39.208;-77.226;2024-03-22T04:58:00;101161.47;;;16.97
80246;BMP280;69558;39.208;-77.226;2024-03-22T05:00:29;101168.19;;;16.99
80246;BMP280;69558;39.208;-77.226;2024-03-22T05:02:55;101162.44;;;16.96
80246;BMP280;69558;39.208;-77.226;2024-03-22T05:05:21;101161.47;;;16.97
80246;BMP280;69558;39.208;-77.226;2024-03-22T05:07:47;101160.34;;;16.99
80246;BMP280;69558;39.208;-77.226;2024-03-22T05:10:13;101160.47;;;16.98
80246;BMP280;69558;39.208;-77.226;2024-03-22T05:12:39;101166.75;;;17.05
80246;BMP280;69558;39.208;-77.226;2024-03-22T05:15:06;101163.47;;;17.03
80246;BMP280;69558;39.208;-77.226;2024-03-22T05:17:34;101173.66;;;17.06
80246;BMP280;69558;39.208;-77.226;2024-03-22T05:20:00;101177.44;;;17.03
80246;BMP280;69558;39.208;-77.226;2024-03-22T05:22:26;101167.06;;;17.02
80246;BMP280;69558;39.208;-77.226;2024-03-22T05:24:51;101173.13;;;17.02
80246;BMP280;69558;39.208;-77.226;2024-03-22T05:27:18;101176.56;;;17.03
80246;BMP280;69558;39.208;-77.226;2024-03-22T05:29:44;101178.38;;;17.02
80246;BMP280;69558;39.208;-77.226;2024-03-22T05:32:10;101174.09;;;17.01
80246;BMP280;69558;39.208;-77.226;2024-03-22T05:34:36;101165.22;;;16.94
80246;BMP280;69558;39.208;-77.226;2024-03-22T05:37:04;101171.28;;;16.95
80246;BMP280;69558;39.208;-77.226;2024-03-22T05:39:31;101167.00;;;16.94
80246;BMP280;69558;39.208;-77.226;2024-03-22T05:41:56;101169.78;;;16.92
80246;BMP280;69558;39.208;-77.226;2024-03-22T05:44:22;101173.38;;;16.91
80246;BMP280;69558;39.208;-77.226;2024-03-22T05:46:48;101182.34;;;16.89
80246;BMP280;69558;39.208;-77.226;2024-03-22T05:49:15;101170.56;;;16.84
80246;BMP280;69558;39.208;-77.226;2024-03-22T05:51:40;101179.25;;;16.85
80246;BMP280;69558;39.208;-77.226;2024-03-22T05:54:06;101179.38;;;16.83
80246;BMP280;69558;39.208;-77.226;2024-03-22T05:56:35;101181.19;;;16.83
80246;BMP280;69558;39.208;-77.226;2024-03-22T05:59:02;101187.22;;;16.83
80246;BMP280;69558;39.208;-77.226;2024-03-22T06:01:29;101176.56;;;16.77
80246;BMP280;69558;39.208;-77.226;2024-03-22T06:03:54;101188.69;;;16.78
80246;BMP280;69558;39.208;-77.226;2024-03-22T06:06:20;101193.28;;;16.84
80246;BMP280;69558;39.208;-77.226;2024-03-22T06:08:51;101193.63;;;16.81
80246;BMP280;69558;39.208;-77.226;2024-03-22T06:11:22;101188.03;;;16.76
80246;BMP280;69558;39.208;-77.226;2024-03-22T06:13:48;101201.34;;;16.82
80246;BMP280;69558;39.208;-77.226;2024-03-22T06:16:14;101187.31;;;16.74
80246;BMP280;69558;39.208;-77.226;2024-03-22T06:18:40;101192.09;;;16.78
80246;BMP280;69558;39.208;-77.226;2024-03-22T06:21:06;101203.41;;;16.79
80246;BMP280;69558;39.208;-77.226;2024-03-22T06:23:34;101197.34;;;16.78
80246;BMP280;69558;39.208;-77.226;2024-03-22T06:26:00;101194.34;;;16.73
80246;BMP280;69558;39.208;-77.226;2024-03-22T06:28:28;101199.97;;;16.78
80246;BMP280;69558;39.208;-77.226;2024-03-22T06:30:54;101199.03;;;16.79
80246;BMP280;69558;39.208;-77.226;2024-03-22T06:33:20;101208.53;;;16.80
80246;BMP280;69558;39.208;-77.226;2024-03-22T06:35:47;101208.53;;;16.80
80246;BMP280;69558;39.208;-77.226;2024-03-22T06:38:13;101202.59;;;16.78
80246;BMP280;69558;39.208;-77.226;2024-03-22T06:40:39;101209.19;;;16.82
80246;BMP280;69558;39.208;-77.226;2024-03-22T06:43:05;101191.16;;;16.79
80246;BMP280;69558;39.208;-77.226;2024-03-22T06:45:31;101197.44;;;16.87
80246;BMP280;69558;39.208;-77.226;2024-03-22T06:47:57;101188.75;;;16.86
80246;BMP280;69558;39.208;-77.226;2024-03-22T06:50:22;101183.66;;;16.84
80246;BMP280;69558;39.208;-77.226;2024-03-22T06:52:58;101186.78;;;16.88
80246;BMP280;69558;39.208;-77.226;2024-03-22T06:55:24;101179.09;;;16.87
80246;BMP280;69558;39.208;-77.226;2024-03-22T06:57:50;101193.84;;;16.88
80246;BMP280;69558;39.208;-77.226;2024-03-22T07:00:18;101197.44;;;16.87
80246;BMP280;69558;39.208;-77.226;2024-03-22T07:02:44;101199.75;;;16.90
80246;BMP280;69558;39.208;-77.226;2024-03-22T07:05:11;101201.41;;;16.91
80246;BMP280;69558;39.208;-77.226;2024-03-22T07:07:37;101181.97;;;16.83
80246;BMP280;69558;39.208;-77.226;2024-03-22T07:10:05;101191.44;;;16.94
80246;BMP280;69558;39.208;-77.226;2024-03-22T07:12:33;101187.97;;;16.94
80246;BMP280;69558;39.208;-77.226;2024-03-22T07:15:01;101196.50;;;16.96
80246;BMP280;69558;39.208;-77.226;2024-03-22T07:17:29;101197.50;;;16.95
80246;BMP280;69558;39.208;-77.226;2024-03-22T07:19:55;101197.34;;;16.96
80246;BMP280;69558;39.208;-77.226;2024-03-22T07:22:24;101193.91;;;16.96
80246;BMP280;69558;39.208;-77.226;2024-03-22T07:24:50;101187.00;;;16.95
80246;BMP280;69558;39.208;-77.226;2024-03-22T07:27:17;101187.31;;;16.92
80246;BMP280;69558;39.208;-77.226;2024-03-22T07:29:44;101188.28;;;16.91
80246;BMP280;69558;39.208;-77.226;2024-03-22T07:32:10;101182.53;;;16.87
80246;BMP280;69558;39.208;-77.226;2024-03-22T07:34:36;101174.13;;;16.83
80246;BMP280;69558;39.208;-77.226;2024-03-22T07:37:02;101188.75;;;16.86
80246;BMP280;69558;39.208;-77.226;2024-03-22T07:39:29;101190.66;;;16.84
80246;BMP280;69558;39.208;-77.226;2024-03-22T07:41:55;101195.09;;;16.83
80246;BMP280;69558;39.208;-77.226;2024-03-22T07:44:22;101193.47;;;16.82
80246;BMP280;69558;39.208;-77.226;2024-03-22T07:46:52;101185.06;;;16.79
80246;BMP280;69558;39.208;-77.226;2024-03-22T07:49:17;101197.06;;;16.81
80246;BMP280;69558;39.208;-77.226;2024-03-22T07:51:43;101196.41;;;16.79
80246;BMP280;69558;39.208;-77.226;2024-03-22T07:54:09;101205.09;;;16.80
80246;BMP280;69558;39.208;-77.226;2024-03-22T07:56:35;101207.19;;;16.76
80246;BMP280;69558;39.208;-77.226;2024-03-22T07:59:01;101215.19;;;16.75
80246;BMP280;69558;39.208;-77.226;2024-03-22T08:01:28;101203.03;;;16.74
80246;BMP280;69558;39.208;-77.226;2024-03-22T08:03:55;101195.19;;;16.74
80246;BMP280;69558;39.208;-77.226;2024-03-22T08:06:21;101195.50;;;16.71
80246;BMP280;69558;39.208;-77.226;2024-03-22T08:08:47;101206.81;;;16.71
80246;BMP280;69558;39.208;-77.226;2024-03-22T08:11:13;101210.25;;;16.72
80246;BMP280;69558;39.208;-77.226;2024-03-22T08:13:38;101208.63;;;16.71
80246;BMP280;69558;39.208;-77.226;2024-03-22T08:16:05;101219.59;;;16.74
80246;BMP280;69558;39.208;-77.226;2024-03-22T08:18:32;101209.97;;;16.75
80246;BMP280;69558;39.208;-77.226;2024-03-22T08:21:04;101215.88;;;16.77
80246;BMP280;69558;39.208;-77.226;2024-03-22T08:23:30;101214.06;;;16.77
80246;BMP280;69558;39.208;-77.226;2024-03-22T08:25:56;101208.28;;;16.74
80246;BMP280;69558;39.208;-77.226;2024-03-22T08:28:23;101220.81;;;16.80
80246;BMP280;69558;39.208;-77.226;2024-03-22T08:30:49;101223.28;;;16.81
80246;BMP280;69558;39.208;-77.226;2024-03-22T08:33:15;101219.81;;;16.81
80246;BMP280;69558;39.208;-77.226;2024-03-22T08:35:40;101233.59;;;16.83
80246;BMP280;69558;39.208;-77.226;2024-03-22T08:38:06;101221.47;;;16.82
80246;BMP280;69558;39.208;-77.226;2024-03-22T08:40:38;101214.59;;;16.81
80246;BMP280;69558;39.208;-77.226;2024-03-22T08:43:05;101229.84;;;16.85
80246;BMP280;69558;39.208;-77.226;2024-03-22T08:45:36;101237.56;;;16.87
80246;BMP280;69558;39.208;-77.226;2024-03-22T08:48:05;101231.50;;;16.87
80246;BMP280;69558;39.208;-77.226;2024-03-22T08:50:31;101232.59;;;16.84
80246;BMP280;69558;39.208;-77.226;2024-03-22T08:52:57;101223.88;;;16.75
80246;BMP280;69558;39.208;-77.226;2024-03-22T08:55:23;101231.50;;;16.87
80246;BMP280;69558;39.208;-77.226;2024-03-22T08:57:49;101231.66;;;16.85
80246;BMP280;69558;39.208;-77.226;2024-03-22T09:00:15;101240.19;;;16.87
80246;BMP280;69558;39.208;-77.226;2024-03-22T09:02:41;101241.31;;;16.84
80246;BMP280;69558;39.208;-77.226;2024-03-22T09:05:07;101240.19;;;16.87
80246;BMP280;69558;39.208;-77.226;2024-03-22T09:07:34;101242.13;;;16.85
80246;BMP280;69558;39.208;-77.226;2024-03-22T09:10:00;101235.56;;;16.81
80246;BMP280;69558;39.208;-77.226;2024-03-22T09:12:25;101233.75;;;16.81
80246;BMP280;69558;39.208;-77.226;2024-03-22T09:14:51;101231.75;;;16.75
80246;BMP280;69558;39.208;-77.226;2024-03-22T09:17:17;101238.63;;;16.76
80246;BMP280;69558;39.208;-77.226;2024-03-22T09:19:43;101244.69;;;16.77
80246;BMP280;69558;39.208;-77.226;2024-03-22T09:22:09;101238.78;;;16.75
80246;BMP280;69558;39.208;-77.226;2024-03-22T09:24:35;101235.50;;;16.73
80246;BMP280;69558;39.208;-77.226;2024-03-22T09:27:01;101226.81;;;16.72
80246;BMP280;69558;39.208;-77.226;2024-03-22T09:29:29;101238.25;;;16.71
80246;BMP280;69558;39.208;-77.226;2024-03-22T09:31:55;101235.78;;;16.70
80246;BMP280;69558;39.208;-77.226;2024-03-22T09:34:21;101248.03;;;16.69
80246;BMP280;69558;39.208;-77.226;2024-03-22T09:36:47;101241.97;;;16.69
80246;BMP280;69558;39.208;-77.226;2024-03-22T09:39:13;101240.34;;;16.68
80246;BMP280;69558;39.208;-77.226;2024-03-22T09:41:43;101220.16;;;16.60
80246;BMP280;69558;39.208;-77.226;2024-03-22T09:44:12;101223.72;;;16.59
80246;BMP280;69558;39.208;-77.226;2024-03-22T09:46:40;101214.50;;;16.55
80246;BMP280;69558;39.208;-77.226;2024-03-22T09:49:09;101218.09;;;16.54
80246;BMP280;69558;39.208;-77.226;2024-03-22T09:51:37;101232.28;;;16.61
80246;BMP280;69558;39.208;-77.226;2024-03-22T09:54:04;101217.66;;;16.59
80246;BMP280;69558;39.208;-77.226;2024-03-22T09:56:31;101239.16;;;16.62
80246;BMP280;69558;39.208;-77.226;2024-03-22T09:58:58;101240.97;;;16.62
80246;BMP280;69558;39.208;-77.226;2024-03-22T10:01:24;101248.63;;;16.63
80246;BMP280;69558;39.208;-77.226;2024-03-22T10:03:52;101250.47;;;16.63
80246;BMP280;69558;39.208;-77.226;2024-03-22T10:06:18;101255.03;;;16.61
80246;BMP280;69558;39.208;-77.226;2024-03-22T10:08:44;101262.88;;;16.61
80246;BMP280;69558;39.208;-77.226;2024-03-22T10:11:11;101264.19;;;16.65
80246;BMP280;69558;39.208;-77.226;2024-03-22T10:13:37;101265.34;;;16.62
80246;BMP280;69558;39.208;-77.226;2024-03-22T10:16:04;101263.25;;;16.66
80246;BMP280;69558;39.208;-77.226;2024-03-22T10:18:32;101268.50;;;16.66
80246;BMP280;69558;39.208;-77.226;2024-03-22T10:21:04;101275.22;;;16.68
80246;BMP280;69558;39.208;-77.226;2024-03-22T10:23:31;101283.06;;;16.68
80246;BMP280;69558;39.208;-77.226;2024-03-22T10:26:00;101263.38;;;16.64
80246;BMP280;69558;39.208;-77.226;2024-03-22T10:28:26;101276.84;;;16.69
80246;BMP280;69558;39.208;-77.226;2024-03-22T10:30:52;101276.22;;;16.67
80246;BMP280;69558;39.208;-77.226;2024-03-22T10:33:20;101274.56;;;16.66
80246;BMP280;69558;39.208;-77.226;2024-03-22T10:35:51;101291.31;;;16.73
80246;BMP280;69558;39.208;-77.226;2024-03-22T10:38:19;101290.50;;;16.73
80246;BMP280;69558;39.208;-77.226;2024-03-22T10:40:45;101293.28;;;16.71
80246;BMP280;69558;39.208;-77.226;2024-03-22T10:43:15;101285.41;;;16.71
80246;BMP280;69558;39.208;-77.226;2024-03-22T10:45:41;101299.16;;;16.73
80246;BMP280;69558;39.208;-77.226;2024-03-22T10:48:11;101301.78;;;16.73
80246;BMP280;69558;39.208;-77.226;2024-03-22T10:50:41;101296.53;;;16.73
80246;BMP280;69558;39.208;-77.226;2024-03-22T10:53:16;101295.56;;;16.74
80246;BMP280;69558;39.208;-77.226;2024-03-22T10:55:47;101288.88;;;16.72
80246;BMP280;69558;39.208;-77.226;2024-03-22T10:58:24;101291.63;;;16.70
80246;BMP280;69558;39.208;-77.226;2024-03-22T11:00:54;101298.53;;;16.71
80246;BMP280;69558;39.208;-77.226;2024-03-22T11:03:25;101299.78;;;16.67
80246;BMP280;69558;39.208;-77.226;2024-03-22T11:05:55;101301.41;;;16.68
80246;BMP280;69558;39.208;-77.226;2024-03-22T11:08:28;101295.00;;;16.63
80246;BMP280;69558;39.208;-77.226;2024-03-22T11:10:56;101306.13;;;16.65
80246;BMP280;69558;39.208;-77.226;2024-03-22T11:13:23;101302.03;;;16.62
80246;BMP280;69558;39.208;-77.226;2024-03-22T11:15:49;101309.06;;;16.62
80246;BMP280;69558;39.208;-77.226;2024-03-22T11:18:16;101310.88;;;16.61
80246;BMP280;69558;39.208;-77.226;2024-03-22T11:20:43;101312.13;;;16.57
80246;BMP280;69558;39.208;-77.226;2024-03-22T11:23:10;101314.75;;;16.57
80246;BMP280;69558;39.208;-77.226;2024-03-22T11:25:37;101313.56;;;16.51
80246;BMP280;69558;39.208;-77.226;2024-03-22T11:28:04;101322.06;;;16.53
80246;BMP280;69558;39.208;-77.226;2024-03-22T11:30:32;101315.34;;;16.51
80246;BMP280;69558;39.208;-77.226;2024-03-22T11:33:04;101318.59;;;16.53
80246;BMP280;69558;39.208;-77.226;2024-03-22T11:35:34;101328.25;;;16.52
80246;BMP280;69558;39.208;-77.226;2024-03-22T11:38:00;101322.94;;;16.44
80246;BMP280;69558;39.208;-77.226;2024-03-22T11:40:26;101331.19;;;16.49
80246;BMP280;69558;39.208;-77.226;2024-03-22T11:42:54;101341.66;;;16.49
80246;BMP280;69558;39.208;-77.226;2024-03-22T11:45:21;101344.28;;;16.49
80246;BMP280;69558;39.208;-77.226;2024-03-22T11:47:48;101335.91;;;16.46
80246;BMP280;69558;39.208;-77.226;2024-03-22T11:50:15;101335.91;;;16.46
80246;BMP280;69558;39.208;-77.226;2024-03-22T11:52:44;101332.72;;;16.42
80246;BMP280;69558;39.208;-77.226;2024-03-22T11:55:13;101345.25;;;16.48
80246;BMP280;69558;39.208;-77.226;2024-03-22T11:57:39;101347.72;;;16.50
80246;BMP280;69558;39.208;-77.226;2024-03-22T12:00:05;101339.03;;;16.49
80246;BMP280;69558;39.208;-77.226;2024-03-22T12:02:38;101348.44;;;16.52
80246;BMP280;69558;39.208;-77.226;2024-03-22T12:05:07;101349.22;;;16.52
80246;BMP280;69558;39.208;-77.226;2024-03-22T12:07:37;101345.63;;;16.53
80246;BMP280;69558;39.208;-77.226;2024-03-22T12:10:04;101349.06;;;16.54
80246;BMP280;69558;39.208;-77.226;2024-03-22T12:12:30;101345.47;;;16.55
80246;BMP280;69558;39.208;-77.226;2024-03-22T12:14:56;101340.13;;;16.57
80246;BMP280;69558;39.208;-77.226;2024-03-22T12:17:21;101349.59;;;16.58
80246;BMP280;69558;39.208;-77.226;2024-03-22T12:19:47;101344.16;;;16.51
80246;BMP280;69558;39.208;-77.226;2024-03-22T12:22:13;101346.19;;;16.57
80246;BMP280;69558;39.208;-77.226;2024-03-22T12:24:39;101340.78;;;16.59
80246;BMP280;69558;39.208;-77.226;2024-03-22T12:27:05;101354.69;;;16.59
80246;BMP280;69558;39.208;-77.226;2024-03-22T12:29:35;101344.81;;;16.53
80246;BMP280;69558;39.208;-77.226;2024-03-22T12:32:01;101349.44;;;16.59
80246;BMP280;69558;39.208;-77.226;2024-03-22T12:34:32;101345.38;;;16.57
80246;BMP280;69558;39.208;-77.226;2024-03-22T12:37:00;101354.56;;;16.61
80246;BMP280;69558;39.208;-77.226;2024-03-22T12:39:26;101346.19;;;16.57
80246;BMP280;69558;39.208;-77.226;2024-03-22T12:41:52;101348.63;;;16.59
80246;BMP280;69558;39.208;-77.226;2024-03-22T12:44:19;101351.13;;;16.60
80246;BMP280;69558;39.208;-77.226;2024-03-22T12:46:45;101351.56;;;16.56
80246;BMP280;69558;39.208;-77.226;2024-03-22T12:49:11;101340.38;;;16.53
80246;BMP280;69558;39.208;-77.226;2024-03-22T12:51:39;101337.63;;;16.55
80246;BMP280;69558;39.208;-77.226;2024-03-22T12:54:07;101340.94;;;16.57
80246;BMP280;69558;39.208;-77.226;2024-03-22T12:56:35;101335.00;;;16.55
80246;BMP280;69558;39.208;-77.226;2024-03-22T12:59:03;101336.13;;;16.52
80246;BMP280;69558;39.208;-77.226;2024-03-22T13:01:30;101335.16;;;16.53
80246;BMP280;69558;39.208;-77.226;2024-03-22T13:03:56;101332.84;;;16.50
80246;BMP280;69558;39.208;-77.226;2024-03-22T13:06:22;101332.72;;;16.52
80246;BMP280;69558;39.208;-77.226;2024-03-22T13:08:48;101328.69;;;16.48
80246;BMP280;69558;39.208;-77.226;2024-03-22T13:11:14;101327.19;;;16.45
80246;BMP280;69558;39.208;-77.226;2024-03-22T13:13:39;101328.69;;;16.48
80246;BMP280;69558;39.208;-77.226;2024-03-22T13:16:05;101330.50;;;16.47
80246;BMP280;69558;39.208;-77.226;2024-03-22T13:18:35;101322.50;;;16.49
80246;BMP280;69558;39.208;-77.226;2024-03-22T13:21:01;101323.66;;;16.46
80246;BMP280;69558;39.208;-77.226;2024-03-22T13:23:29;101318.53;;;16.45
80246;BMP280;69558;39.208;-77.226;2024-03-22T13:25:55;101321.13;;;16.45
80246;BMP280;69558;39.208;-77.226;2024-03-22T13:28:24;101329.00;;;16.45
80246;BMP280;69558;39.208;-77.226;2024-03-22T13:33:30;101319.63;;;16.42